Englewood, Colorado
Current Conditions -  °F | °C
As of 5:53 PM on Monday 24 Nov 2014 (Local Time) from KAPA Reporting Station
Broken Clouds Broken Clouds  
Wind Chill: 28°   Ceiling: 7000
Heat Index: 28°   Visibility: 10mi
Dew Point: 20°   Wind: 0mph
Humidity: 72%   Direction: NA
Pressure: 30.16"   Gusts: NA
Location:  39.65°N, 104.99°W
Report Text: KAPA 250053Z 00000KT 10SM FEW045 BKN070 BKN110 BKN180 M02/M07 A3016 RMK AO2 SLP257 T10221067
Loading
Personal Weather Stations






























Interactive Weather Map New forecast layout! Learn more

10-Day Weather Forecast

Advertisements
Track Severe Weather on mobile